createdAt,value
2023-02-28T00:01:36.299Z,101978.05
2023-02-28T00:04:05.196Z,101980.14
2023-02-28T00:06:33.959Z,101980.36
2023-02-28T00:09:03.106Z,101978.39
2023-02-28T00:11:32.073Z,101974.35
2023-02-28T00:14:00.836Z,101970.77
2023-02-28T00:16:29.806Z,101967.98
2023-02-28T00:18:58.836Z,101965.02
2023-02-28T00:21:27.808Z,101966.70
2023-02-28T00:23:57.014Z,101973.37
2023-02-28T00:26:25.753Z,101979.47
2023-02-28T00:28:54.491Z,101976.61
2023-02-28T00:31:25.000Z,101972.53
2023-02-28T00:33:53.830Z,101970.79
2023-02-28T00:36:23.209Z,101970.09
2023-02-28T00:38:51.883Z,101972.42
2023-02-28T00:41:20.787Z,101970.24
2023-02-28T00:43:50.085Z,101967.10
2023-02-28T00:46:18.832Z,101960.77
2023-02-28T00:48:47.777Z,101958.02
2023-02-28T00:51:17.074Z,101955.78
2023-02-28T00:53:45.761Z,101959.33
2023-02-28T00:56:14.960Z,101954.98
2023-02-28T00:58:43.641Z,101966.00
2023-02-28T01:01:12.559Z,101969.70
2023-02-28T01:03:41.643Z,101973.25
2023-02-28T01:06:10.314Z,101979.81
2023-02-28T01:08:41.153Z,101974.48
2023-02-28T01:11:12.082Z,101975.91
2023-02-28T01:13:43.853Z,101985.77
2023-02-28T01:16:14.923Z,101994.20
2023-02-28T01:18:44.683Z,101999.98
2023-02-28T01:21:15.638Z,101995.17
2023-02-28T01:23:45.043Z,102002.61
2023-02-28T01:26:17.630Z,102007.23
2023-02-28T01:28:47.023Z,102008.98
2023-02-28T01:31:15.876Z,102010.42
2023-02-28T01:33:45.095Z,102011.63
2023-02-28T01:36:16.971Z,102007.53
2023-02-28T01:38:46.589Z,102017.29
2023-02-28T01:41:22.338Z,102023.36
2023-02-28T01:43:51.325Z,102027.32
2023-02-28T01:46:20.663Z,102025.58
2023-02-28T01:48:51.763Z,102032.10
2023-02-28T01:51:28.477Z,102036.38
2023-02-28T01:54:02.659Z,102034.18
2023-02-28T01:56:36.555Z,102049.17
2023-02-28T01:59:07.305Z,102065.95
2023-02-28T02:01:36.427Z,102072.21
2023-02-28T02:04:05.708Z,102071.78
2023-02-28T02:06:45.541Z,102066.84
2023-02-28T02:09:14.643Z,102062.79
2023-02-28T02:11:46.190Z,102065.30
2023-02-28T02:14:34.247Z,102070.12
2023-02-28T02:17:15.213Z,102067.08
2023-02-28T02:19:53.302Z,102074.79
2023-02-28T02:22:48.433Z,102087.88
2023-02-28T02:25:35.548Z,102085.63
2023-02-28T02:28:50.819Z,102085.65
2023-02-28T02:31:25.997Z,102078.75
2023-02-28T02:34:25.570Z,102072.18
2023-02-28T02:37:32.645Z,102076.10
2023-02-28T02:40:17.428Z,102073.30
2023-02-28T02:43:13.022Z,102071.67
2023-02-28T02:45:50.945Z,102067.46
2023-02-28T02:48:23.180Z,102064.79
2023-02-28T02:50:56.633Z,102067.30
2023-02-28T02:53:34.720Z,102066.95
2023-02-28T02:56:06.658Z,102065.38
2023-02-28T02:58:37.620Z,102064.49
2023-02-28T03:01:06.356Z,102061.48
2023-02-28T03:03:37.927Z,102062.25
2023-02-28T03:06:07.480Z,102064.50
2023-02-28T03:08:38.409Z,102067.69
2023-02-28T03:11:13.568Z,102071.80
2023-02-28T03:14:11.519Z,102079.87
2023-02-28T03:17:01.608Z,102093.25
2023-02-28T03:19:46.988Z,102094.27
2023-02-28T03:22:45.886Z,102090.41
2023-02-28T03:25:26.018Z,102096.22
2023-02-28T03:28:21.373Z,102093.29
2023-02-28T03:30:55.091Z,102093.29
2023-02-28T03:33:33.669Z,102088.57
2023-02-28T03:36:28.372Z,102091.72
2023-02-28T03:39:05.351Z,102099.33
2023-02-28T03:41:43.356Z,102106.31
2023-02-28T03:44:19.729Z,102110.19
2023-02-28T03:46:58.783Z,102115.05
2023-02-28T03:49:50.993Z,102117.50
2023-02-28T03:52:24.593Z,102113.94
2023-02-28T03:54:57.550Z,102117.59
2023-02-28T03:57:34.148Z,102125.10
2023-02-28T04:00:18.280Z,102121.25
2023-02-28T04:02:47.495Z,102115.43
2023-02-28T04:05:16.279Z,102116.23
2023-02-28T04:07:44.869Z,102121.80
2023-02-28T04:10:14.478Z,102124.52
2023-02-28T04:12:42.961Z,102116.30
2023-02-28T04:15:12.672Z,102118.50
2023-02-28T04:17:41.668Z,102122.28
2023-02-28T04:20:11.271Z,102126.85
2023-02-28T04:22:39.958Z,102128.65
2023-02-28T04:25:09.159Z,102129.18
2023-02-28T04:27:38.074Z,102132.23
2023-02-28T04:30:07.657Z,102145.48
2023-02-28T04:32:36.411Z,102149.36
2023-02-28T04:35:05.820Z,102151.73
2023-02-28T04:37:36.194Z,102147.80
2023-02-28T04:40:05.685Z,102149.33
2023-02-28T04:42:37.233Z,102153.52
2023-02-28T04:45:06.914Z,102152.27
2023-02-28T04:47:36.057Z,102151.58
2023-02-28T04:50:05.236Z,102161.61
2023-02-28T04:52:34.023Z,102162.23
2023-02-28T04:55:03.041Z,102167.82
2023-02-28T04:57:31.733Z,102168.95
2023-02-28T05:00:00.492Z,102165.58
2023-02-28T05:02:29.050Z,102161.94
2023-02-28T05:04:58.001Z,102157.66
2023-02-28T05:07:26.960Z,102158.45
2023-02-28T05:09:55.441Z,102159.92
2023-02-28T05:12:24.125Z,102158.48
2023-02-28T05:14:53.019Z,102159.71
2023-02-28T05:17:22.009Z,102164.02
2023-02-28T05:19:50.594Z,102165.41
2023-02-28T05:22:19.383Z,102171.88
2023-02-28T05:24:48.171Z,102174.95
2023-02-28T05:27:16.757Z,102172.21
2023-02-28T05:29:45.326Z,102164.20
2023-02-28T05:32:14.310Z,102163.90
2023-02-28T05:34:43.330Z,102162.34
2023-02-28T05:37:16.943Z,102161.93
2023-02-28T05:39:45.896Z,102158.08
2023-02-28T05:42:14.511Z,102150.77
2023-02-28T05:44:43.406Z,102154.64
2023-02-28T05:47:14.110Z,102159.19
2023-02-28T05:49:43.534Z,102165.72
2023-02-28T05:52:12.123Z,102169.90
2023-02-28T05:54:40.914Z,102170.20
2023-02-28T05:57:15.670Z,102168.83
2023-02-28T05:59:52.834Z,102169.48
2023-02-28T06:02:21.714Z,102175.06
2023-02-28T06:04:50.815Z,102176.84
2023-02-28T06:07:19.400Z,102177.20
2023-02-28T06:09:48.390Z,102173.23
2023-02-28T06:12:17.183Z,102182.93
2023-02-28T06:14:45.774Z,102196.65
2023-02-28T06:17:14.657Z,102204.64
2023-02-28T06:19:43.448Z,102213.52
2023-02-28T06:22:12.100Z,102231.68
2023-02-28T06:24:40.889Z,102235.41
2023-02-28T06:27:09.711Z,102248.05
2023-02-28T06:29:41.073Z,102247.39
2023-02-28T06:32:10.906Z,102249.70
2023-02-28T06:34:39.771Z,102248.11
2023-02-28T06:37:08.452Z,102256.06
2023-02-28T06:39:37.831Z,102256.48
2023-02-28T06:42:06.749Z,102251.42
2023-02-28T06:44:39.331Z,102254.00
2023-02-28T06:47:08.324Z,102253.59
2023-02-28T06:49:37.521Z,102251.75
2023-02-28T06:52:06.412Z,102243.58
2023-02-28T06:54:35.419Z,102238.62
2023-02-28T06:57:04.292Z,102231.59
2023-02-28T06:59:33.191Z,102228.20
2023-02-28T07:02:03.315Z,102222.02
2023-02-28T07:04:31.916Z,102223.04
2023-02-28T07:07:00.578Z,102210.24
2023-02-28T07:09:31.204Z,102195.72
2023-02-28T07:12:01.876Z,102196.41
2023-02-28T07:14:30.520Z,102194.52
2023-02-28T07:16:59.320Z,102186.59
2023-02-28T07:19:28.195Z,102184.57
2023-02-28T07:21:57.088Z,102173.67
2023-02-28T07:24:29.672Z,102182.35
2023-02-28T07:26:58.456Z,102189.88
2023-02-28T07:29:27.999Z,102190.56
2023-02-28T07:31:57.869Z,102187.30
2023-02-28T07:34:27.282Z,102184.16
2023-02-28T07:36:56.090Z,102185.49
2023-02-28T07:39:24.941Z,102182.58
2023-02-28T07:41:53.972Z,102187.84
2023-02-28T07:44:25.612Z,102189.30
2023-02-28T07:46:54.667Z,102194.58
2023-02-28T07:49:23.720Z,102190.83
2023-02-28T07:51:52.291Z,102189.50
2023-02-28T07:54:20.989Z,102190.71
2023-02-28T07:56:49.875Z,102194.67
2023-02-28T07:59:18.579Z,102200.54
2023-02-28T08:01:47.269Z,102205.11
2023-02-28T08:04:15.932Z,102211.24
2023-02-28T08:06:45.230Z,102207.57
2023-02-28T08:09:13.841Z,102209.96
2023-02-28T08:11:42.499Z,102218.27
2023-02-28T08:14:11.456Z,102218.39
2023-02-28T08:16:40.122Z,102216.29
2023-02-28T08:19:08.664Z,102219.06
2023-02-28T08:21:37.521Z,102220.64
2023-02-28T08:24:06.759Z,102228.43
2023-02-28T08:26:35.544Z,102233.46
2023-02-28T08:29:04.225Z,102237.95
2023-02-28T08:31:33.487Z,102246.41
2023-02-28T08:34:06.627Z,102245.34
2023-02-28T08:36:36.575Z,102242.85
2023-02-28T08:39:05.232Z,102242.45
2023-02-28T08:41:35.135Z,102243.45
2023-02-28T08:44:04.438Z,102242.30
2023-02-28T08:46:33.118Z,102240.13
2023-02-28T08:49:03.237Z,102240.90
2023-02-28T08:51:32.434Z,102239.34
2023-02-28T08:54:01.950Z,102243.24
2023-02-28T08:56:30.847Z,102242.61
2023-02-28T08:58:59.516Z,102241.98
2023-02-28T09:01:30.727Z,102244.10
2023-02-28T09:04:00.889Z,102253.91
2023-02-28T09:06:30.242Z,102250.34
2023-02-28T09:09:00.651Z,102248.77
2023-02-28T09:11:29.975Z,102250.86
2023-02-28T09:14:01.804Z,102245.98
2023-02-28T09:16:33.032Z,102241.05
2023-02-28T09:19:02.930Z,102250.25
2023-02-28T09:21:32.528Z,102244.89
2023-02-28T09:24:01.232Z,102244.21
2023-02-28T09:26:35.338Z,102238.55
2023-02-28T09:29:12.729Z,102242.11
2023-02-28T09:31:41.425Z,102236.29
2023-02-28T09:34:10.081Z,102236.03
2023-02-28T09:36:45.325Z,102228.30
2023-02-28T09:39:18.101Z,102226.77
2023-02-28T09:41:52.186Z,102226.15
2023-02-28T09:44:36.609Z,102218.23
2023-02-28T09:47:34.494Z,102218.31
2023-02-28T09:50:16.685Z,102215.35
2023-02-28T09:52:47.165Z,102210.55
2023-02-28T09:55:30.642Z,102212.32
2023-02-28T09:58:03.171Z,102214.23
2023-02-28T10:00:40.310Z,102217.62
2023-02-28T10:03:34.103Z,102215.70
2023-02-28T10:06:14.020Z,102217.27
2023-02-28T10:08:47.322Z,102214.08
2023-02-28T10:11:19.589Z,102211.36
2023-02-28T10:13:48.274Z,102208.11
2023-02-28T10:16:33.604Z,102211.33
2023-02-28T10:19:14.532Z,102210.47
2023-02-28T10:21:57.247Z,102210.58
2023-02-28T10:24:36.571Z,102213.02
2023-02-28T10:27:20.007Z,102213.55
2023-02-28T10:29:51.498Z,102216.69
2023-02-28T10:32:26.674Z,102210.09
2023-02-28T10:35:08.594Z,102209.45
2023-02-28T10:37:42.792Z,102206.73
2023-02-28T10:40:23.170Z,102204.90
2023-02-28T10:43:02.706Z,102200.66
2023-02-28T10:45:35.930Z,102201.14
2023-02-28T10:48:51.318Z,102193.93
2023-02-28T10:51:21.007Z,102188.99
2023-02-28T10:54:02.930Z,102188.14
2023-02-28T10:56:32.470Z,102186.61
2023-02-28T10:59:03.360Z,102180.98
2023-02-28T11:01:36.910Z,102180.33
2023-02-28T11:04:24.030Z,102172.08
2023-02-28T11:07:22.227Z,102171.69
2023-02-28T11:09:55.426Z,102175.70
2023-02-28T11:12:46.863Z,102170.73
2023-02-28T11:15:26.673Z,102171.50
2023-02-28T11:17:56.352Z,102174.21
2023-02-28T11:20:28.159Z,102176.67
2023-02-28T11:23:00.133Z,102177.45
2023-02-28T11:25:34.145Z,102174.73
2023-02-28T11:28:07.636Z,102172.61
2023-02-28T11:30:45.070Z,102169.64
2023-02-28T11:33:32.364Z,102166.38
2023-02-28T11:36:10.068Z,102160.36
2023-02-28T11:38:39.473Z,102161.99
2023-02-28T11:41:44.360Z,102154.65
2023-02-28T11:44:52.657Z,102145.05
2023-02-28T11:47:48.930Z,102140.23
2023-02-28T11:50:55.196Z,102145.98
2023-02-28T11:53:56.421Z,102150.48
2023-02-28T11:57:10.300Z,102144.83
2023-02-28T11:59:48.521Z,102140.38
2023-02-28T12:02:43.786Z,102142.05
2023-02-28T12:05:27.573Z,102143.30
2023-02-28T12:08:02.393Z,102145.73
2023-02-28T12:10:54.532Z,102143.17
2023-02-28T12:13:31.104Z,102144.08
2023-02-28T12:16:16.613Z,102142.52
2023-02-28T12:18:53.912Z,102138.06
2023-02-28T12:21:50.312Z,102136.84
2023-02-28T12:24:50.537Z,102132.89
2023-02-28T12:27:25.275Z,102137.90
2023-02-28T12:30:04.191Z,102136.33
2023-02-28T12:32:43.851Z,102132.23
2023-02-28T12:35:27.499Z,102133.35
2023-02-28T12:38:20.833Z,102126.24
2023-02-28T12:41:03.074Z,102122.64
2023-02-28T12:43:41.053Z,102121.91
2023-02-28T12:46:16.969Z,102117.77
2023-02-28T12:48:58.449Z,102115.08
2023-02-28T12:51:28.904Z,102109.93
2023-02-28T12:54:23.405Z,102106.77
2023-02-28T12:57:23.218Z,102107.62
2023-02-28T13:00:11.057Z,102112.97
2023-02-28T13:02:42.876Z,102118.45
2023-02-28T13:05:20.306Z,102122.31
2023-02-28T13:08:28.833Z,102120.34
2023-02-28T13:10:57.993Z,102120.81
2023-02-28T13:13:30.890Z,102122.83
2023-02-28T13:16:08.934Z,102118.05
2023-02-28T13:18:40.436Z,102115.46
2023-02-28T13:21:11.685Z,102108.98
2023-02-28T13:23:52.591Z,102106.35
2023-02-28T13:26:21.476Z,102109.09
2023-02-28T13:28:50.366Z,102110.36
2023-02-28T13:31:19.883Z,102116.33
2023-02-28T13:33:51.733Z,102114.54
2023-02-28T13:36:20.566Z,102107.23
2023-02-28T13:39:01.566Z,102106.34
2023-02-28T13:41:31.054Z,102104.30
2023-02-28T13:44:20.175Z,102103.69
2023-02-28T13:46:49.643Z,102108.25
2023-02-28T13:49:29.725Z,102105.97
2023-02-28T13:52:07.387Z,102099.96
2023-02-28T13:54:57.649Z,102098.23
2023-02-28T13:57:35.058Z,102100.32
2023-02-28T14:00:29.980Z,102101.19
2023-02-28T14:03:23.713Z,102101.89
2023-02-28T14:06:26.780Z,102099.17
2023-02-28T14:09:04.398Z,102099.90
2023-02-28T14:11:37.260Z,102103.24
2023-02-28T14:14:07.497Z,102097.88
2023-02-28T14:16:40.867Z,102097.38
2023-02-28T14:19:25.540Z,102093.14
2023-02-28T14:22:11.951Z,102093.13
2023-02-28T14:24:53.437Z,102087.19
2023-02-28T14:27:41.176Z,102082.41
2023-02-28T14:30:17.125Z,102084.03
2023-02-28T14:33:23.358Z,102078.45
2023-02-28T14:36:05.823Z,102077.86
2023-02-28T14:39:16.006Z,102075.95
2023-02-28T14:41:46.076Z,102077.11
2023-02-28T14:44:20.616Z,102074.71
2023-02-28T14:46:56.191Z,102074.91
2023-02-28T14:49:53.096Z,102076.33
2023-02-28T14:52:24.754Z,102075.35
2023-02-28T14:55:14.024Z,102077.50
2023-02-28T14:57:52.747Z,102076.23
2023-02-28T15:00:31.640Z,102078.29
2023-02-28T15:03:02.609Z,102084.42
2023-02-28T15:05:34.328Z,102084.45
2023-02-28T15:08:23.690Z,102083.94
2023-02-28T15:10:56.389Z,102087.42
2023-02-28T15:13:35.961Z,102091.95
2023-02-28T15:16:09.639Z,102090.93
2023-02-28T15:18:59.648Z,102088.11
2023-02-28T15:21:37.854Z,102088.11
2023-02-28T15:24:24.962Z,102091.95
2023-02-28T15:27:01.167Z,102088.04
2023-02-28T15:29:35.358Z,102085.66
2023-02-28T15:32:09.291Z,102084.44
2023-02-28T15:34:44.784Z,102085.13
2023-02-28T15:37:28.036Z,102084.11
2023-02-28T15:39:59.753Z,102088.32
2023-02-28T15:42:32.747Z,102087.56
2023-02-28T15:45:01.470Z,102075.67
2023-02-28T15:47:31.892Z,102072.83
2023-02-28T15:50:15.265Z,102076.58
2023-02-28T15:52:46.572Z,102082.33
2023-02-28T15:55:22.494Z,102087.12
2023-02-28T15:57:54.353Z,102092.11
2023-02-28T16:00:25.344Z,102096.09
2023-02-28T16:02:54.168Z,102101.34
2023-02-28T16:05:31.658Z,102108.17
2023-02-28T16:08:15.559Z,102109.72
2023-02-28T16:10:45.147Z,102117.30
2023-02-28T16:13:16.412Z,102116.98
2023-02-28T16:15:45.353Z,102119.36
2023-02-28T16:18:14.626Z,102116.92
2023-02-28T16:20:45.849Z,102118.38
2023-02-28T16:23:14.496Z,102122.56
2023-02-28T16:25:47.257Z,102125.16
2023-02-28T16:28:26.659Z,102127.61
2023-02-28T16:30:55.678Z,102131.20
2023-02-28T16:33:24.457Z,102133.29
2023-02-28T16:35:53.665Z,102140.49
2023-02-28T16:38:24.581Z,102140.34
2023-02-28T16:40:57.024Z,102135.75
2023-02-28T16:43:27.521Z,102134.30
2023-02-28T16:46:01.189Z,102139.89
2023-02-28T16:48:32.023Z,102146.46
2023-02-28T16:51:01.407Z,102149.06
2023-02-28T16:53:29.859Z,102152.27
2023-02-28T16:55:58.508Z,102151.29
2023-02-28T16:58:28.882Z,102153.65
2023-02-28T17:00:57.532Z,102155.27
2023-02-28T17:03:33.263Z,102156.98
2023-02-28T17:06:02.888Z,102158.65
2023-02-28T17:08:33.475Z,102159.39
2023-02-28T17:11:04.099Z,102156.70
2023-02-28T17:13:35.614Z,102157.75
2023-02-28T17:16:05.060Z,102158.56
2023-02-28T17:18:35.935Z,102154.05
2023-02-28T17:21:05.023Z,102154.81
2023-02-28T17:23:33.610Z,102156.20
2023-02-28T17:26:02.498Z,102160.00
2023-02-28T17:28:31.292Z,102162.83
2023-02-28T17:31:00.134Z,102155.95
2023-02-28T17:33:29.138Z,102151.61
2023-02-28T17:35:58.125Z,102149.16
2023-02-28T17:38:26.824Z,102144.92
2023-02-28T17:40:58.410Z,102141.55
2023-02-28T17:43:30.093Z,102141.14
2023-02-28T17:45:59.612Z,102140.27
2023-02-28T17:48:29.155Z,102138.02
2023-02-28T17:50:58.485Z,102141.49
2023-02-28T17:53:28.324Z,102146.13
2023-02-28T17:55:56.885Z,102142.98
2023-02-28T17:58:26.695Z,102139.72
2023-02-28T18:00:55.691Z,102144.73
2023-02-28T18:03:25.501Z,102147.85
2023-02-28T18:05:54.293Z,102147.28
2023-02-28T18:08:23.409Z,102160.05
2023-02-28T18:10:51.870Z,102166.60
2023-02-28T18:13:20.762Z,102168.77
2023-02-28T18:15:49.678Z,102165.70
2023-02-28T18:18:18.234Z,102157.80
2023-02-28T18:20:49.495Z,102148.32
2023-02-28T18:23:19.318Z,102151.08
2023-02-28T18:25:48.601Z,102146.83
2023-02-28T18:28:17.800Z,102152.90
2023-02-28T18:30:46.686Z,102165.20
2023-02-28T18:33:15.476Z,102170.79
2023-02-28T18:35:45.133Z,102171.58
2023-02-28T18:38:16.375Z,102170.05
2023-02-28T18:40:54.299Z,102170.45
2023-02-28T18:43:24.144Z,102170.13
2023-02-28T18:45:52.727Z,102172.81
2023-02-28T18:48:23.580Z,102175.83
2023-02-28T18:50:52.952Z,102179.55
2023-02-28T18:53:21.652Z,102183.75
2023-02-28T18:55:50.443Z,102183.32
2023-02-28T18:58:19.132Z,102185.73
2023-02-28T19:00:48.164Z,102184.33
2023-02-28T19:03:16.913Z,102182.80
2023-02-28T19:05:45.900Z,102185.08
2023-02-28T19:08:15.000Z,102181.64
2023-02-28T19:10:44.105Z,102178.16
2023-02-28T19:13:12.784Z,102179.11
2023-02-28T19:15:41.479Z,102179.89
2023-02-28T19:18:10.408Z,102176.67
2023-02-28T19:20:39.561Z,102174.98
2023-02-28T19:23:10.705Z,102169.14
2023-02-28T19:25:43.400Z,102168.59
2023-02-28T19:28:12.073Z,102173.27
2023-02-28T19:30:41.078Z,102169.85
2023-02-28T19:33:10.059Z,102169.56
2023-02-28T19:35:41.479Z,102166.84
2023-02-28T19:38:10.685Z,102159.14
2023-02-28T19:40:39.916Z,102155.19
2023-02-28T19:43:09.007Z,102153.54
2023-02-28T19:45:38.913Z,102154.95
2023-02-28T19:48:10.169Z,102157.33
2023-02-28T19:50:41.792Z,102156.45
2023-02-28T19:53:10.510Z,102154.81
2023-02-28T19:55:39.198Z,102151.07
2023-02-28T19:58:08.270Z,102142.52
2023-02-28T20:00:36.883Z,102137.30
2023-02-28T20:03:05.468Z,102133.80
2023-02-28T20:05:34.359Z,102132.21
2023-02-28T20:08:02.910Z,102130.40
2023-02-28T20:10:31.323Z,102131.55
2023-02-28T20:13:00.518Z,102129.88
2023-02-28T20:15:29.923Z,102128.59
2023-02-28T20:18:00.591Z,102126.02
2023-02-28T20:20:29.443Z,102124.06
2023-02-28T20:22:58.238Z,102121.16
2023-02-28T20:25:27.341Z,102127.51
2023-02-28T20:27:56.221Z,102129.23
2023-02-28T20:30:25.054Z,102128.48
2023-02-28T20:32:53.815Z,102130.25
2023-02-28T20:35:22.713Z,102128.17
2023-02-28T20:37:51.276Z,102124.94
2023-02-28T20:40:20.169Z,102124.96
2023-02-28T20:42:48.957Z,102123.91
2023-02-28T20:45:17.745Z,102121.77
2023-02-28T20:47:46.432Z,102119.30
2023-02-28T20:50:16.473Z,102117.88
2023-02-28T20:52:45.135Z,102112.66
2023-02-28T20:55:14.672Z,102110.44
2023-02-28T20:57:43.843Z,102110.91
2023-02-28T21:00:16.412Z,102107.05
2023-02-28T21:02:45.812Z,102110.48
2023-02-28T21:05:14.719Z,102107.30
2023-02-28T21:07:43.405Z,102103.95
2023-02-28T21:10:12.705Z,102101.85
2023-02-28T21:12:41.288Z,102104.16
2023-02-28T21:15:10.265Z,102105.27
2023-02-28T21:17:39.379Z,102099.83
2023-02-28T21:20:08.247Z,102097.87
2023-02-28T21:22:36.855Z,102095.12
2023-02-28T21:25:06.167Z,102101.12
2023-02-28T21:27:35.355Z,102095.95
2023-02-28T21:30:05.601Z,102092.45
2023-02-28T21:32:34.570Z,102090.62
2023-02-28T21:35:03.054Z,102084.20
2023-02-28T21:37:31.669Z,102083.02
2023-02-28T21:40:00.734Z,102081.58
2023-02-28T21:42:29.325Z,102082.98
2023-02-28T21:44:59.131Z,102078.02
2023-02-28T21:47:31.784Z,102080.70
2023-02-28T21:50:00.291Z,102079.72
2023-02-28T21:52:29.287Z,102071.13
2023-02-28T21:54:58.251Z,102071.92
2023-02-28T21:57:27.598Z,102075.91
2023-02-28T21:59:56.678Z,102074.64
2023-02-28T22:02:25.381Z,102076.09
2023-02-28T22:04:54.155Z,102075.30
2023-02-28T22:07:23.045Z,102075.41
2023-02-28T22:09:51.836Z,102074.22
2023-02-28T22:12:20.521Z,102077.27
2023-02-28T22:14:49.205Z,102083.20
2023-02-28T22:17:17.746Z,102078.88
2023-02-28T22:19:46.372Z,102080.91
2023-02-28T22:22:14.955Z,102092.93
2023-02-28T22:24:43.846Z,102088.63
2023-02-28T22:27:12.634Z,102088.60
2023-02-28T22:29:41.711Z,102093.30
2023-02-28T22:32:11.838Z,102090.29
2023-02-28T22:34:40.337Z,102089.56
2023-02-28T22:37:09.428Z,102095.29
2023-02-28T22:39:38.116Z,102098.20
2023-02-28T22:42:07.211Z,102091.70
2023-02-28T22:44:36.893Z,102082.74
2023-02-28T22:47:06.396Z,102083.03
2023-02-28T22:49:35.016Z,102092.55
2023-02-28T22:52:03.798Z,102089.06
2023-02-28T22:54:32.795Z,102083.01
2023-02-28T22:57:01.384Z,102080.77
2023-02-28T22:59:30.170Z,102084.58
2023-02-28T23:01:59.339Z,102078.42
2023-02-28T23:04:28.073Z,102081.79
2023-02-28T23:06:57.046Z,102088.65
2023-02-28T23:09:25.737Z,102089.05
2023-02-28T23:11:54.740Z,102085.41
2023-02-28T23:14:23.417Z,102092.84
2023-02-28T23:16:54.505Z,102088.77
2023-02-28T23:19:26.942Z,102092.23
2023-02-28T23:21:57.677Z,102096.04
2023-02-28T23:24:29.117Z,102094.34
2023-02-28T23:27:03.025Z,102093.47
2023-02-28T23:29:32.137Z,102097.52
2023-02-28T23:32:01.325Z,102096.85
2023-02-28T23:34:32.582Z,102097.89
2023-02-28T23:37:02.606Z,102099.36
2023-02-28T23:39:31.995Z,102100.13
2023-02-28T23:42:02.285Z,102087.53
2023-02-28T23:44:32.138Z,102085.05
2023-02-28T23:47:01.322Z,102084.28
2023-02-28T23:49:29.906Z,102082.70
2023-02-28T23:51:58.499Z,102075.60
2023-02-28T23:54:27.282Z,102072.25
2023-02-28T23:56:56.184Z,102072.64
2023-02-28T23:59:24.964Z,102071.15
